createdAt,value
2022-10-18T00:02:13.845Z,20.32
2022-10-18T00:04:40.387Z,20.30
2022-10-18T00:07:07.038Z,20.22
2022-10-18T00:09:33.743Z,20.49
2022-10-18T00:12:00.908Z,20.45
2022-10-18T00:14:27.471Z,19.97
2022-10-18T00:16:53.997Z,19.46
2022-10-18T00:19:20.569Z,19.55
2022-10-18T00:21:51.321Z,19.81
2022-10-18T00:24:17.971Z,19.90
2022-10-18T00:26:44.678Z,19.67
2022-10-18T00:29:14.093Z,20.11
2022-10-18T00:31:43.530Z,20.00
2022-10-18T00:34:13.649Z,19.70
2022-10-18T00:36:40.791Z,20.18
2022-10-18T00:39:08.413Z,20.24
2022-10-18T00:41:37.936Z,20.23
2022-10-18T00:44:13.666Z,20.03
2022-10-18T00:46:42.934Z,20.22
2022-10-18T00:49:12.878Z,20.34
2022-10-18T00:51:45.239Z,20.39
2022-10-18T00:54:13.812Z,20.21
2022-10-18T00:56:40.391Z,20.20
2022-10-18T00:59:07.698Z,20.03
2022-10-18T01:01:34.375Z,20.17
2022-10-18T01:04:00.932Z,20.00
2022-10-18T01:06:28.315Z,20.33
2022-10-18T01:09:01.272Z,20.25
2022-10-18T01:11:43.551Z,20.22
2022-10-18T01:14:35.207Z,20.29
2022-10-18T01:17:18.306Z,20.29
2022-10-18T01:20:18.852Z,19.96
2022-10-18T01:22:49.781Z,19.98
2022-10-18T01:25:36.748Z,19.80
2022-10-18T01:28:29.619Z,20.07
2022-10-18T01:30:59.842Z,20.13
2022-10-18T01:33:52.270Z,19.96
2022-10-18T01:36:23.889Z,19.71
2022-10-18T01:38:54.546Z,19.75
2022-10-18T01:41:23.347Z,19.75
2022-10-18T01:43:53.259Z,19.68
2022-10-18T01:46:22.459Z,19.57
2022-10-18T01:48:49.255Z,19.31
2022-10-18T01:51:26.100Z,19.67
2022-10-18T01:53:52.619Z,19.48
2022-10-18T01:56:42.714Z,19.78
2022-10-18T01:59:34.034Z,19.67
2022-10-18T02:02:30.174Z,19.64
2022-10-18T02:05:21.057Z,19.38
2022-10-18T02:08:12.162Z,19.63
2022-10-18T02:10:48.100Z,19.58
2022-10-18T02:13:20.774Z,19.86
2022-10-18T02:15:49.586Z,19.79
2022-10-18T02:18:20.343Z,20.12
2022-10-18T02:20:47.922Z,20.01
2022-10-18T02:23:15.284Z,20.02
2022-10-18T02:25:41.785Z,20.03
2022-10-18T02:28:08.638Z,20.17
2022-10-18T02:30:45.485Z,19.30
2022-10-18T02:33:18.602Z,20.17
2022-10-18T02:35:47.600Z,20.13
2022-10-18T02:38:16.321Z,20.03
2022-10-18T02:40:43.153Z,19.83
2022-10-18T02:43:09.696Z,19.53
2022-10-18T02:45:36.667Z,20.00
2022-10-18T02:48:03.254Z,20.10
2022-10-18T02:50:29.696Z,20.11
2022-10-18T02:52:56.134Z,20.02
2022-10-18T02:55:22.650Z,19.64
2022-10-18T02:57:49.151Z,19.83
2022-10-18T03:00:15.950Z,19.95
2022-10-18T03:02:42.439Z,19.98
2022-10-18T03:05:09.039Z,20.12
2022-10-18T03:07:35.557Z,20.18
2022-10-18T03:10:02.313Z,20.06
2022-10-18T03:12:28.817Z,20.41
2022-10-18T03:14:55.326Z,20.09
2022-10-18T03:17:21.895Z,20.02
2022-10-18T03:19:48.350Z,19.80
2022-10-18T03:22:14.779Z,20.10
2022-10-18T03:24:41.286Z,19.96
2022-10-18T03:27:07.791Z,19.78
2022-10-18T03:29:34.267Z,20.04
2022-10-18T03:32:00.907Z,19.87
2022-10-18T03:34:27.378Z,19.51
2022-10-18T03:36:54.879Z,19.67
2022-10-18T03:39:21.378Z,19.96
2022-10-18T03:41:47.848Z,19.98
2022-10-18T03:44:14.397Z,19.80
2022-10-18T03:46:41.024Z,19.91
2022-10-18T03:49:07.546Z,19.91
2022-10-18T03:51:34.487Z,19.83
2022-10-18T03:54:01.059Z,19.95
2022-10-18T03:56:27.575Z,20.05
2022-10-18T03:58:54.043Z,19.53
2022-10-18T04:01:20.892Z,19.76
2022-10-18T04:03:47.429Z,19.57
2022-10-18T04:06:15.003Z,19.75
2022-10-18T04:08:41.478Z,19.54
2022-10-18T04:11:12.246Z,19.45
2022-10-18T04:13:38.996Z,19.39
2022-10-18T04:16:05.840Z,19.47
2022-10-18T04:18:32.362Z,19.84
2022-10-18T04:20:58.947Z,19.82
2022-10-18T04:23:25.449Z,19.82
2022-10-18T04:25:51.930Z,20.09
2022-10-18T04:28:18.738Z,19.67
2022-10-18T04:30:50.507Z,19.89
2022-10-18T04:33:17.630Z,20.19
2022-10-18T04:35:44.116Z,20.13
2022-10-18T04:38:10.622Z,20.07
2022-10-18T04:40:37.771Z,19.87
2022-10-18T04:43:04.272Z,19.86
2022-10-18T04:45:30.824Z,20.07
2022-10-18T04:47:57.321Z,19.91
2022-10-18T04:50:23.766Z,19.97
2022-10-18T04:55:16.944Z,19.60
2022-10-18T04:57:43.491Z,19.76
2022-10-18T05:00:10.311Z,19.66
2022-10-18T05:02:36.788Z,19.71
2022-10-18T05:05:03.824Z,19.97
2022-10-18T05:07:30.321Z,19.19
2022-10-18T05:09:56.804Z,20.21
2022-10-18T05:12:23.347Z,20.18
2022-10-18T05:14:49.815Z,20.05
2022-10-18T05:17:16.484Z,20.24
2022-10-18T05:19:43.101Z,20.30
2022-10-18T05:22:09.608Z,20.02
2022-10-18T05:24:36.038Z,19.92
2022-10-18T05:27:03.091Z,19.86
2022-10-18T05:29:29.619Z,19.87
2022-10-18T05:31:56.118Z,20.11
2022-10-18T05:34:22.629Z,19.84
2022-10-18T05:36:49.886Z,19.22
2022-10-18T05:39:16.429Z,18.84
2022-10-18T05:41:42.930Z,18.64
2022-10-18T05:44:09.579Z,19.03
2022-10-18T05:46:36.185Z,19.34
2022-10-18T05:49:02.779Z,19.62
2022-10-18T05:51:29.208Z,19.81
2022-10-18T05:53:55.913Z,19.82
2022-10-18T05:56:22.478Z,19.66
2022-10-18T05:58:53.160Z,19.98
2022-10-18T06:01:19.927Z,19.56
2022-10-18T06:03:46.621Z,19.06
2022-10-18T06:06:13.831Z,19.43
2022-10-18T06:08:40.985Z,19.79
2022-10-18T06:11:09.370Z,19.94
2022-10-18T06:13:43.081Z,19.92
2022-10-18T06:16:10.156Z,20.10
2022-10-18T06:18:37.031Z,20.11
2022-10-18T06:21:03.734Z,19.78
2022-10-18T06:23:30.288Z,19.83
2022-10-18T06:26:01.203Z,20.02
2022-10-18T06:28:28.649Z,19.75
2022-10-18T06:30:56.359Z,19.75
2022-10-18T06:33:23.228Z,19.92
2022-10-18T06:36:00.434Z,19.63
2022-10-18T06:38:27.762Z,19.94
2022-10-18T06:40:55.676Z,20.10
2022-10-18T06:43:22.371Z,20.16
2022-10-18T06:45:49.484Z,19.77
2022-10-18T06:48:17.073Z,20.06
2022-10-18T06:50:54.015Z,19.76
2022-10-18T06:53:20.598Z,19.78
2022-10-18T06:55:47.106Z,19.84
2022-10-18T06:58:13.740Z,19.60
2022-10-18T07:00:40.327Z,19.50
2022-10-18T07:03:06.968Z,19.48
2022-10-18T07:08:05.163Z,19.81
2022-10-18T07:10:31.646Z,19.42
2022-10-18T07:13:13.528Z,20.06
2022-10-18T07:15:44.707Z,19.83
2022-10-18T07:18:11.175Z,19.98
2022-10-18T07:20:38.127Z,19.43
2022-10-18T07:23:07.097Z,19.86
2022-10-18T07:25:33.582Z,19.42
2022-10-18T07:28:00.535Z,19.44
2022-10-18T07:30:27.087Z,19.32
2022-10-18T07:32:53.849Z,18.99
2022-10-18T07:35:20.478Z,18.83
2022-10-18T07:37:47.020Z,19.43
2022-10-18T07:40:13.601Z,18.83
2022-10-18T07:42:40.054Z,19.15
2022-10-18T07:45:07.000Z,19.19
2022-10-18T07:47:35.221Z,18.72
2022-10-18T07:50:01.942Z,18.87
2022-10-18T07:52:28.388Z,19.25
2022-10-18T07:54:54.993Z,19.72
2022-10-18T07:57:21.538Z,19.54
2022-10-18T07:59:48.287Z,19.57
2022-10-18T08:02:14.839Z,19.89
2022-10-18T08:04:41.669Z,20.19
2022-10-18T08:07:08.145Z,20.48
2022-10-18T08:09:34.685Z,20.51
2022-10-18T08:12:01.236Z,20.08
2022-10-18T08:14:27.795Z,20.01
2022-10-18T08:16:55.628Z,20.28
2022-10-18T08:19:22.387Z,20.16
2022-10-18T08:21:49.134Z,20.11
2022-10-18T08:24:15.664Z,19.99
2022-10-18T08:26:42.164Z,20.05
2022-10-18T08:29:22.456Z,20.05
2022-10-18T08:31:50.921Z,20.15
2022-10-18T08:34:19.859Z,20.27
2022-10-18T08:36:46.592Z,19.66
2022-10-18T08:39:13.175Z,20.16
2022-10-18T08:41:51.825Z,20.31
2022-10-18T08:44:27.695Z,19.77
2022-10-18T08:47:14.812Z,20.20
2022-10-18T08:49:52.801Z,20.37
2022-10-18T08:52:59.363Z,20.31
2022-10-18T08:55:42.721Z,20.20
2022-10-18T08:58:30.806Z,20.74
2022-10-18T09:01:10.371Z,20.29
2022-10-18T09:03:55.396Z,20.60
2022-10-18T09:06:36.019Z,20.50
2022-10-18T09:09:08.685Z,20.42
2022-10-18T09:11:38.226Z,20.40
2022-10-18T09:14:17.538Z,20.34
2022-10-18T09:16:55.751Z,20.40
2022-10-18T09:19:28.295Z,20.07
2022-10-18T09:21:58.796Z,20.10
2022-10-18T09:24:39.295Z,20.24
2022-10-18T09:27:14.081Z,20.09
2022-10-18T09:29:46.644Z,20.35
2022-10-18T09:32:34.890Z,20.15
2022-10-18T09:35:14.330Z,20.75
2022-10-18T09:37:41.734Z,20.62
2022-10-18T09:40:29.333Z,20.99
2022-10-18T09:43:01.513Z,20.89
2022-10-18T09:45:31.443Z,20.67
2022-10-18T09:48:11.553Z,20.11
2022-10-18T09:50:57.803Z,19.92
2022-10-18T09:53:37.405Z,20.50
2022-10-18T09:56:09.442Z,20.85
2022-10-18T09:58:44.225Z,21.05
2022-10-18T10:01:13.218Z,21.12
2022-10-18T10:03:40.002Z,21.50
2022-10-18T10:06:12.626Z,21.96
2022-10-18T10:08:43.981Z,22.39
2022-10-18T10:11:47.036Z,22.75
2022-10-18T10:16:44.586Z,23.03
2022-10-18T10:19:19.339Z,23.44
2022-10-18T10:21:47.830Z,22.89
2022-10-18T10:24:43.090Z,23.48
2022-10-18T10:27:31.274Z,22.87
2022-10-18T10:30:28.091Z,22.68
2022-10-18T10:32:56.396Z,22.57
2022-10-18T10:38:26.690Z,22.49
2022-10-18T10:40:53.481Z,22.08
2022-10-18T10:43:40.128Z,22.25
2022-10-18T10:46:20.899Z,20.82
2022-10-18T10:49:00.353Z,21.37
2022-10-18T10:51:36.436Z,21.69
2022-10-18T10:54:21.497Z,21.55
2022-10-18T10:57:01.476Z,22.12
2022-10-18T10:59:32.523Z,22.24
2022-10-18T11:02:14.619Z,22.90
2022-10-18T11:04:42.175Z,22.43
2022-10-18T11:07:35.697Z,22.55
2022-10-18T11:10:11.322Z,21.66
2022-10-18T11:12:46.003Z,22.09
2022-10-18T11:15:28.901Z,21.81
2022-10-18T11:18:17.470Z,21.01
2022-10-18T11:20:53.712Z,20.98
2022-10-18T11:23:20.767Z,20.35
2022-10-18T11:25:59.609Z,21.08
2022-10-18T11:28:42.072Z,20.14
2022-10-18T11:31:31.342Z,19.84
2022-10-18T11:34:19.627Z,20.17
2022-10-18T11:37:15.604Z,20.15
2022-10-18T11:40:00.085Z,20.31
2022-10-18T11:42:37.888Z,21.17
2022-10-18T11:45:22.820Z,20.93
2022-10-18T11:47:56.369Z,21.68
2022-10-18T11:50:27.840Z,22.14
2022-10-18T11:53:15.996Z,24.25
2022-10-18T11:55:45.541Z,29.52
2022-10-18T11:58:42.807Z,31.95
2022-10-18T12:01:23.447Z,31.51
2022-10-18T12:04:01.888Z,35.18
2022-10-18T12:06:34.020Z,36.56
2022-10-18T12:09:40.318Z,35.75
2022-10-18T12:12:20.265Z,33.56
2022-10-18T12:15:07.003Z,32.44
2022-10-18T12:17:43.894Z,29.04
2022-10-18T12:20:48.967Z,28.77
2022-10-18T12:23:20.115Z,28.84
2022-10-18T12:25:51.260Z,26.32
2022-10-18T12:28:51.807Z,24.27
2022-10-18T12:31:39.809Z,24.22
2022-10-18T12:34:23.714Z,24.33
2022-10-18T12:37:24.731Z,24.67
2022-10-18T12:40:18.859Z,25.30
2022-10-18T12:42:49.521Z,24.02
2022-10-18T12:45:26.534Z,24.42
2022-10-18T12:47:53.686Z,24.13
2022-10-18T12:50:28.149Z,24.69
2022-10-18T12:53:03.787Z,24.16
2022-10-18T12:55:33.813Z,23.77
2022-10-18T12:58:02.653Z,23.49
2022-10-18T13:00:32.115Z,23.60
2022-10-18T13:03:14.263Z,24.48
2022-10-18T13:06:02.894Z,23.67
2022-10-18T13:08:38.146Z,24.89
2022-10-18T13:11:07.775Z,25.29
2022-10-18T13:14:11.578Z,24.33
2022-10-18T13:16:56.376Z,24.61
2022-10-18T13:19:38.519Z,24.26
2022-10-18T13:22:31.257Z,24.51
2022-10-18T13:25:28.908Z,24.97
2022-10-18T13:28:20.788Z,25.03
2022-10-18T13:30:56.783Z,24.63
2022-10-18T13:33:36.610Z,25.16
2022-10-18T13:36:22.817Z,25.41
2022-10-18T13:38:57.611Z,25.11
2022-10-18T13:41:28.323Z,25.29
2022-10-18T13:44:02.712Z,25.68
2022-10-18T13:46:36.432Z,25.56
2022-10-18T13:49:30.493Z,24.75
2022-10-18T13:52:24.457Z,24.57
2022-10-18T13:55:06.173Z,24.46
2022-10-18T13:57:55.982Z,24.89
2022-10-18T14:00:28.664Z,25.54
2022-10-18T14:03:37.531Z,24.99
2022-10-18T14:06:18.967Z,25.01
2022-10-18T14:08:57.686Z,25.29
2022-10-18T14:11:41.130Z,25.23
2022-10-18T14:14:23.222Z,25.07
2022-10-18T14:16:52.631Z,24.97
2022-10-18T14:19:25.263Z,24.76
2022-10-18T14:22:18.657Z,25.74
2022-10-18T14:24:48.641Z,24.95
2022-10-18T14:27:18.304Z,25.55
2022-10-18T14:29:44.871Z,25.16
2022-10-18T14:32:23.221Z,25.21
2022-10-18T14:34:50.360Z,25.18
2022-10-18T14:37:34.444Z,24.99
2022-10-18T14:40:01.838Z,25.18
2022-10-18T14:42:28.918Z,24.66
2022-10-18T14:44:56.466Z,24.65
2022-10-18T14:47:28.234Z,24.39
2022-10-18T14:49:57.590Z,24.61
2022-10-18T14:52:29.528Z,24.73
2022-10-18T14:54:59.473Z,24.56
2022-10-18T14:57:34.919Z,24.64
2022-10-18T15:00:05.097Z,24.39
2022-10-18T15:02:33.647Z,24.29
2022-10-18T15:05:07.853Z,23.43
2022-10-18T15:07:34.951Z,23.05
2022-10-18T15:10:04.013Z,24.14
2022-10-18T15:12:36.903Z,24.00
2022-10-18T15:15:35.154Z,23.14
2022-10-18T15:18:02.011Z,22.84
2022-10-18T15:20:31.949Z,23.15
2022-10-18T15:23:26.590Z,22.90
2022-10-18T15:26:00.427Z,22.30
2022-10-18T15:28:33.642Z,22.59
2022-10-18T15:31:01.879Z,22.35
2022-10-18T15:33:34.270Z,22.60
2022-10-18T15:36:12.138Z,22.65
2022-10-18T15:38:38.998Z,22.27
2022-10-18T15:41:52.770Z,22.35
2022-10-18T15:44:22.170Z,22.04
2022-10-18T15:46:50.002Z,21.83
2022-10-18T15:49:45.370Z,21.81
2022-10-18T15:52:42.858Z,21.60
2022-10-18T15:55:31.256Z,21.30
2022-10-18T15:58:12.730Z,21.12
2022-10-18T16:00:39.353Z,20.63
2022-10-18T16:03:08.944Z,20.36
2022-10-18T16:05:36.897Z,20.90
2022-10-18T16:08:03.628Z,20.89
2022-10-18T16:10:30.255Z,20.89
2022-10-18T16:12:56.878Z,20.85
2022-10-18T16:15:23.565Z,20.53
2022-10-18T16:17:51.455Z,20.51
2022-10-18T16:20:23.328Z,20.63
2022-10-18T16:22:49.888Z,20.42
2022-10-18T16:25:16.611Z,19.95
2022-10-18T16:27:43.379Z,20.26
2022-10-18T16:30:16.906Z,20.27
2022-10-18T16:32:43.865Z,20.18
2022-10-18T16:35:12.142Z,20.13
2022-10-18T16:37:39.700Z,19.95
2022-10-18T16:40:23.994Z,19.87
2022-10-18T16:42:56.194Z,19.56
2022-10-18T16:45:22.794Z,19.26
2022-10-18T16:47:49.341Z,19.11
2022-10-18T16:50:19.316Z,19.35
2022-10-18T16:52:46.037Z,19.24
2022-10-18T16:55:21.282Z,19.16
2022-10-18T16:57:49.111Z,18.99
2022-10-18T17:00:21.315Z,18.99
2022-10-18T17:02:48.722Z,18.47
2022-10-18T17:05:17.130Z,18.90
2022-10-18T17:07:45.145Z,18.70
2022-10-18T17:10:17.334Z,18.64
2022-10-18T17:12:43.845Z,18.47
2022-10-18T17:15:11.017Z,18.31
2022-10-18T17:17:37.778Z,17.92
2022-10-18T17:20:06.083Z,18.36
2022-10-18T17:22:32.750Z,18.03
2022-10-18T17:24:59.259Z,18.37
2022-10-18T17:27:26.217Z,18.06
2022-10-18T17:29:52.952Z,18.10
2022-10-18T17:32:19.638Z,18.22
2022-10-18T17:34:46.169Z,17.63
2022-10-18T17:37:13.573Z,18.33
2022-10-18T17:39:40.302Z,18.35
2022-10-18T17:42:07.298Z,18.21
2022-10-18T17:44:33.784Z,18.18
2022-10-18T17:47:02.733Z,17.61
2022-10-18T17:49:29.276Z,17.91
2022-10-18T17:51:55.776Z,17.69
2022-10-18T17:54:22.338Z,17.83
2022-10-18T17:56:53.903Z,17.51
2022-10-18T17:59:21.127Z,17.68
2022-10-18T18:04:19.403Z,17.44
2022-10-18T18:06:45.981Z,17.65
2022-10-18T18:09:15.215Z,17.91
2022-10-18T18:11:44.296Z,17.90
2022-10-18T18:14:12.120Z,17.96
2022-10-18T18:16:41.200Z,17.63
2022-10-18T18:19:09.838Z,17.87
2022-10-18T18:21:40.264Z,17.72
2022-10-18T18:24:07.177Z,17.43
2022-10-18T18:26:35.043Z,17.57
2022-10-18T18:31:38.865Z,17.36
2022-10-18T18:34:07.258Z,17.51
2022-10-18T18:36:33.978Z,17.19
2022-10-18T18:39:00.717Z,17.28
2022-10-18T18:41:28.372Z,17.29
2022-10-18T18:43:57.821Z,17.32
2022-10-18T18:46:25.694Z,16.92
2022-10-18T18:48:52.352Z,17.13
2022-10-18T18:51:20.774Z,17.10
2022-10-18T18:53:48.587Z,17.00
2022-10-18T18:56:17.844Z,16.53
2022-10-18T18:58:45.415Z,16.83
2022-10-18T19:01:17.934Z,17.04
2022-10-18T19:03:49.111Z,16.90
2022-10-18T19:06:21.295Z,16.77
2022-10-18T19:08:48.584Z,16.17
2022-10-18T19:11:17.357Z,16.44
2022-10-18T19:13:45.285Z,16.41
2022-10-18T19:16:27.063Z,16.61
2022-10-18T19:19:07.746Z,16.61
2022-10-18T19:21:41.035Z,16.64
2022-10-18T19:24:07.692Z,16.56
2022-10-18T19:26:34.355Z,16.56
2022-10-18T19:29:07.466Z,16.41
2022-10-18T19:31:34.922Z,16.29
2022-10-18T19:34:11.867Z,16.23
2022-10-18T19:36:39.847Z,16.36
2022-10-18T19:39:09.644Z,15.76
2022-10-18T19:41:36.255Z,16.46
2022-10-18T19:44:03.327Z,15.03
2022-10-18T19:46:29.794Z,15.91
2022-10-18T19:48:56.631Z,15.66
2022-10-18T19:51:27.916Z,15.84
2022-10-18T19:53:56.715Z,15.81
2022-10-18T19:56:24.688Z,15.96
2022-10-18T19:58:51.830Z,16.02
2022-10-18T20:01:21.111Z,16.06
2022-10-18T20:03:50.451Z,16.14
2022-10-18T20:06:20.354Z,15.87
2022-10-18T20:08:47.856Z,15.33
2022-10-18T20:11:18.027Z,15.75
2022-10-18T20:13:44.782Z,15.83
2022-10-18T20:16:12.935Z,15.78
2022-10-18T20:18:39.474Z,15.26
2022-10-18T20:21:07.484Z,15.75
2022-10-18T20:23:38.511Z,15.71
2022-10-18T20:26:07.683Z,15.82
2022-10-18T20:28:34.990Z,15.82
2022-10-18T20:31:01.528Z,15.79
2022-10-18T20:33:29.091Z,15.74
2022-10-18T20:35:55.696Z,15.74
2022-10-18T20:38:22.320Z,15.84
2022-10-18T20:40:48.787Z,15.85
2022-10-18T20:43:15.298Z,15.80
2022-10-18T20:45:42.533Z,15.68
2022-10-18T20:48:11.883Z,15.62
2022-10-18T20:50:42.045Z,15.51
2022-10-18T20:53:08.603Z,15.15
2022-10-18T20:55:39.468Z,15.47
2022-10-18T20:58:06.824Z,15.40
2022-10-18T21:00:34.866Z,15.65
2022-10-18T21:03:01.497Z,15.44
2022-10-18T21:05:31.912Z,15.71
2022-10-18T21:07:58.962Z,15.66
2022-10-18T21:10:26.168Z,15.77
2022-10-18T21:12:53.079Z,15.33
2022-10-18T21:15:19.641Z,15.30
2022-10-18T21:17:52.038Z,15.54
2022-10-18T21:20:18.804Z,15.56
2022-10-18T21:22:45.465Z,14.81
2022-10-18T21:25:12.010Z,14.81
2022-10-18T21:27:38.587Z,14.71
2022-10-18T21:30:05.368Z,15.12
2022-10-18T21:32:32.218Z,15.02
2022-10-18T21:34:58.939Z,14.68
2022-10-18T21:37:25.434Z,15.28
2022-10-18T21:39:52.327Z,15.20
2022-10-18T21:42:18.802Z,15.13
2022-10-18T21:44:45.521Z,15.06
2022-10-18T21:47:12.007Z,14.68
2022-10-18T21:49:38.448Z,14.80
2022-10-18T21:52:05.371Z,15.06
2022-10-18T21:54:31.998Z,14.57
2022-10-18T21:56:58.438Z,15.03
2022-10-18T21:59:26.152Z,15.08
2022-10-18T22:01:52.726Z,14.53
2022-10-18T22:04:23.960Z,13.94
2022-10-18T22:06:53.797Z,14.83
2022-10-18T22:09:21.366Z,14.66
2022-10-18T22:11:52.358Z,14.68
2022-10-18T22:14:19.561Z,14.63
2022-10-18T22:16:46.438Z,14.26
2022-10-18T22:19:12.957Z,14.26
2022-10-18T22:21:39.517Z,14.66
2022-10-18T22:24:07.663Z,14.56
2022-10-18T22:26:40.495Z,14.81
2022-10-18T22:29:15.327Z,14.66
2022-10-18T22:31:48.638Z,14.53
2022-10-18T22:34:18.292Z,14.37
2022-10-18T22:36:45.210Z,14.13
2022-10-18T22:39:14.255Z,14.48
2022-10-18T22:41:41.692Z,14.67
2022-10-18T22:44:08.371Z,14.29
2022-10-18T22:46:35.246Z,14.80
2022-10-18T22:49:01.763Z,14.71
2022-10-18T22:51:28.284Z,14.21
2022-10-18T22:53:54.833Z,14.13
2022-10-18T22:56:22.516Z,14.70
2022-10-18T22:58:50.863Z,13.90
2022-10-18T23:01:19.682Z,14.14
2022-10-18T23:03:46.263Z,14.28
2022-10-18T23:06:28.816Z,14.41
2022-10-18T23:08:57.717Z,14.34
2022-10-18T23:11:25.883Z,14.25
2022-10-18T23:13:54.227Z,14.53
2022-10-18T23:16:20.838Z,14.20
2022-10-18T23:18:53.110Z,14.39
2022-10-18T23:21:20.679Z,14.22
2022-10-18T23:23:52.355Z,13.97
2022-10-18T23:26:24.699Z,13.87
2022-10-18T23:28:53.352Z,14.13
2022-10-18T23:31:23.019Z,14.25
2022-10-18T23:33:51.818Z,13.85
2022-10-18T23:36:18.737Z,14.16
2022-10-18T23:38:45.376Z,13.88
2022-10-18T23:41:13.628Z,14.09
2022-10-18T23:43:40.522Z,14.17
2022-10-18T23:46:07.475Z,14.22
2022-10-18T23:48:34.315Z,14.16
2022-10-18T23:51:01.671Z,14.24
2022-10-18T23:53:28.580Z,13.81
2022-10-18T23:56:00.780Z,14.19
2022-10-18T23:58:28.863Z,13.88
